Time;durP1;ratioP1;P1;durP2;ratioP2;P2;SDS_P1;SDS_P2;PMS_P1;PMS_P2;Temp;Humidity;BMP_temperature;BMP_pressure;BME280_temperature;BME280_humidity;BME280_pressure;Samples;Min_cycle;Max_cycle;Signal;HPM_P1;HPM_P2
2024/03/27 00:00:28;;;;;;;;;5.67;3.33;;;;;;;;5099042;27;47086;-86
2024/03/27 00:02:53;;;;;;;;;4.00;4.00;;;;;;;;5100222;27;45387;-88
2024/03/27 00:05:19;;;;;;;;;4.00;4.00;;;;;;;;5099493;27;45252;-87
2024/03/27 00:07:44;;;;;;;;;3.00;3.00;;;;;;;;5099094;27;45974;-88
2024/03/27 00:10:09;;;;;;;;;4.00;3.00;;;;;;;;5100496;27;45151;-88
2024/03/27 00:12:34;;;;;;;;;3.00;3.00;;;;;;;;5100592;27;45292;-88
2024/03/27 00:15:01;;;;;;;;;3.00;3.00;;;;;;;;5101733;27;45556;-88
2024/03/27 00:17:26;;;;;;;;;4.00;4.00;;;;;;;;5105212;27;45261;-89
2024/03/27 00:19:51;;;;;;;;;4.00;3.33;;;;;;;;5102940;27;47302;-89
2024/03/27 00:22:17;;;;;;;;;4.00;3.00;;;;;;;;5104167;27;45393;-88
2024/03/27 00:24:42;;;;;;;;;3.00;3.00;;;;;;;;5104372;27;45206;-88
2024/03/27 00:27:07;;;;;;;;;4.33;3.00;;;;;;;;5104072;27;45376;-88
2024/03/27 00:29:32;;;;;;;;;2.33;2.00;;;;;;;;5104172;27;46347;-88
2024/03/27 00:31:57;;;;;;;;;3.00;2.00;;;;;;;;5104000;27;45313;-87
2024/03/27 00:34:23;;;;;;;;;3.33;3.33;;;;;;;;5102404;27;45390;-89
2024/03/27 00:36:48;;;;;;;;;3.00;3.00;;;;;;;;5102994;27;47135;-89
2024/03/27 00:39:13;;;;;;;;;3.00;3.00;;;;;;;;5103645;27;45469;-87
2024/03/27 00:41:38;;;;;;;;;5.00;4.00;;;;;;;;5103806;27;45255;-88
2024/03/27 00:44:04;;;;;;;;;3.00;3.00;;;;;;;;5103674;27;45247;-87
2024/03/27 00:46:29;;;;;;;;;3.67;3.67;;;;;;;;5103373;27;45495;-88
2024/03/27 00:48:54;;;;;;;;;2.33;2.33;;;;;;;;5101561;27;47289;-87
2024/03/27 00:51:19;;;;;;;;;2.00;2.00;;;;;;;;5102129;27;45904;-88
2024/03/27 00:53:44;;;;;;;;;2.67;2.67;;;;;;;;5103415;27;45392;-88
2024/03/27 00:56:10;;;;;;;;;4.67;3.00;;;;;;;;5095341;27;45836;-88
2024/03/27 00:58:35;;;;;;;;;1.33;1.33;;;;;;;;5080932;28;47438;-88
2024/03/27 01:01:00;;;;;;;;;3.67;3.67;;;;;;;;5063028;27;45242;-88
2024/03/27 01:03:26;;;;;;;;;3.67;3.67;;;;;;;;5074996;28;45432;-88
2024/03/27 01:05:51;;;;;;;;;4.00;4.00;;;;;;;;5076432;27;45492;-88
2024/03/27 01:08:17;;;;;;;;;4.00;4.00;;;;;;;;5060935;28;48236;-88
2024/03/27 01:10:44;;;;;;;;;4.00;4.00;;;;;;;;5061816;28;45506;-88
2024/03/27 01:13:09;;;;;;;;;3.67;3.33;;;;;;;;5061227;28;45317;-88
2024/03/27 01:15:34;;;;;;;;;3.00;3.00;;;;;;;;5062341;28;45271;-88
2024/03/27 01:18:00;;;;;;;;;3.67;2.33;;;;;;;;5060836;28;47371;-87
2024/03/27 01:20:26;;;;;;;;;3.00;3.00;;;;;;;;5062323;28;45309;-88
2024/03/27 01:22:52;;;;;;;;;4.00;2.33;;;;;;;;5061273;28;45309;-88
2024/03/27 01:25:17;;;;;;;;;4.00;4.00;;;;;;;;5060180;28;46038;-87
2024/03/27 01:27:43;;;;;;;;;3.00;3.00;;;;;;;;5060934;28;46957;-87
2024/03/27 01:30:08;;;;;;;;;6.00;3.00;;;;;;;;5062269;28;45317;-87
2024/03/27 01:32:34;;;;;;;;;3.00;3.00;;;;;;;;5060697;28;45316;-88
2024/03/27 01:34:59;;;;;;;;;3.00;3.00;;;;;;;;5061585;28;45290;-88
2024/03/27 01:37:24;;;;;;;;;3.00;3.00;;;;;;;;5061678;28;45329;-88
2024/03/27 01:39:49;;;;;;;;;4.00;3.00;;;;;;;;5061832;28;45234;-87
2024/03/27 01:42:14;;;;;;;;;3.67;3.00;;;;;;;;5060403;28;45389;-88
2024/03/27 01:44:40;;;;;;;;;3.00;2.67;;;;;;;;5061709;28;45286;-88
2024/03/27 01:47:07;;;;;;;;;3.33;3.00;;;;;;;;5060282;28;46980;-87
2024/03/27 01:49:33;;;;;;;;;2.00;2.00;;;;;;;;5060067;28;45367;-87
2024/03/27 01:51:59;;;;;;;;;5.00;4.00;;;;;;;;5060832;28;45279;-87
2024/03/27 01:54:25;;;;;;;;;2.00;2.00;;;;;;;;5062092;28;45197;-87
2024/03/27 01:56:51;;;;;;;;;4.33;4.00;;;;;;;;5067475;27;47423;-87
2024/03/27 01:59:16;;;;;;;;;4.00;4.00;;;;;;;;5102310;27;45188;-87
2024/03/27 02:01:41;;;;;;;;;4.00;2.33;;;;;;;;5101179;27;45261;-89
2024/03/27 02:04:07;;;;;;;;;5.00;3.00;;;;;;;;5100718;27;46351;-86
2024/03/27 02:06:32;;;;;;;;;3.67;3.67;;;;;;;;5102062;27;46122;-88
2024/03/27 02:08:57;;;;;;;;;5.00;4.33;;;;;;;;5102113;27;45429;-88
2024/03/27 02:11:23;;;;;;;;;6.00;5.00;;;;;;;;5102095;27;45306;-87
2024/03/27 02:13:48;;;;;;;;;3.67;3.67;;;;;;;;5100689;27;46245;-88
2024/03/27 02:16:13;;;;;;;;;3.67;3.67;;;;;;;;5100572;27;47112;-87
2024/03/27 02:18:38;;;;;;;;;5.67;5.67;;;;;;;;5100329;27;45303;-89
2024/03/27 02:21:05;;;;;;;;;4.00;3.00;;;;;;;;5100927;27;45369;-88
2024/03/27 02:23:34;;;;;;;;;5.00;5.00;;;;;;;;5102309;27;45223;-88
2024/03/27 02:26:01;;;;;;;;;5.00;5.00;;;;;;;;5102010;27;45406;-89
2024/03/27 02:28:27;;;;;;;;;4.00;4.00;;;;;;;;5085230;27;45454;-87
2024/03/27 02:30:52;;;;;;;;;4.00;4.00;;;;;;;;5082148;27;45146;-87
2024/03/27 02:33:17;;;;;;;;;4.00;4.00;;;;;;;;5079894;28;46557;-86
2024/03/27 02:35:42;;;;;;;;;4.00;4.00;;;;;;;;5080812;27;45472;-89
2024/03/27 02:38:07;;;;;;;;;6.00;5.00;;;;;;;;5080273;27;45388;-88
2024/03/27 02:40:33;;;;;;;;;5.33;5.33;;;;;;;;5081504;27;45309;-88
2024/03/27 02:42:58;;;;;;;;;4.00;4.00;;;;;;;;5081089;27;45259;-86
2024/03/27 02:45:23;;;;;;;;;4.00;4.00;;;;;;;;5079999;28;48391;-87
2024/03/27 02:47:48;;;;;;;;;7.00;5.67;;;;;;;;5081377;28;45421;-87
2024/03/27 02:50:14;;;;;;;;;8.00;7.00;;;;;;;;5082893;27;45312;-88
2024/03/27 02:52:39;;;;;;;;;1.33;1.33;;;;;;;;5079793;28;45933;-87
2024/03/27 02:55:04;;;;;;;;;6.00;6.00;;;;;;;;5081261;27;46300;-86
2024/03/27 02:57:29;;;;;;;;;6.00;6.00;;;;;;;;5079767;28;45401;-87
2024/03/27 02:59:54;;;;;;;;;5.00;5.00;;;;;;;;5081145;27;45293;-87
2024/03/27 03:02:20;;;;;;;;;7.00;7.00;;;;;;;;5079499;28;46793;-86
2024/03/27 03:04:45;;;;;;;;;5.33;5.00;;;;;;;;5079272;28;48248;-87
2024/03/27 03:07:10;;;;;;;;;4.00;4.00;;;;;;;;5081497;27;45324;-88
2024/03/27 03:09:36;;;;;;;;;6.00;5.33;;;;;;;;5081428;27;45387;-88
2024/03/27 03:12:01;;;;;;;;;4.33;4.33;;;;;;;;5080872;27;45492;-88
2024/03/27 03:14:26;;;;;;;;;5.00;5.00;;;;;;;;5079705;28;47298;-89
2024/03/27 03:16:51;;;;;;;;;5.67;4.33;;;;;;;;5080738;27;45432;-87
2024/03/27 03:19:16;;;;;;;;;5.33;4.67;;;;;;;;5079364;28;45462;-89
2024/03/27 03:21:41;;;;;;;;;6.00;6.00;;;;;;;;5079465;28;47015;-88
2024/03/27 03:24:07;;;;;;;;;7.33;4.67;;;;;;;;5079366;28;47293;-87
2024/03/27 03:26:34;;;;;;;;;4.33;4.00;;;;;;;;5079158;28;45801;-87
2024/03/27 03:28:59;;;;;;;;;6.00;6.00;;;;;;;;5080824;28;45225;-87
2024/03/27 03:31:24;;;;;;;;;7.00;5.00;;;;;;;;5080456;27;45267;-87
2024/03/27 03:33:50;;;;;;;;;5.00;5.00;;;;;;;;5079852;27;46171;-88
2024/03/27 03:36:15;;;;;;;;;3.67;3.67;;;;;;;;5080704;27;45294;-88
2024/03/27 03:38:41;;;;;;;;;5.00;5.00;;;;;;;;5080682;27;45215;-88
2024/03/27 03:41:10;;;;;;;;;4.67;4.67;;;;;;;;5080596;27;45307;-88
2024/03/27 03:43:35;;;;;;;;;5.00;5.00;;;;;;;;5079522;28;47544;-91
2024/03/27 03:46:00;;;;;;;;;6.00;6.00;;;;;;;;5080428;27;46193;-87
2024/03/27 03:48:25;;;;;;;;;6.33;6.33;;;;;;;;5080045;28;45437;-87
2024/03/27 03:50:51;;;;;;;;;4.00;4.00;;;;;;;;5078774;28;47296;-88
2024/03/27 03:53:16;;;;;;;;;8.67;7.33;;;;;;;;5079885;27;45997;-87
2024/03/27 03:55:41;;;;;;;;;7.33;7.00;;;;;;;;5080121;27;45312;-87
2024/03/27 03:58:07;;;;;;;;;5.67;5.67;;;;;;;;5074763;27;45444;-86
2024/03/27 04:00:32;;;;;;;;;6.00;6.00;;;;;;;;5058409;28;45965;-86
2024/03/27 04:02:57;;;;;;;;;4.67;4.67;;;;;;;;5057895;28;48030;-86
2024/03/27 04:05:22;;;;;;;;;5.33;5.00;;;;;;;;5058058;28;45515;-87
2024/03/27 04:07:47;;;;;;;;;5.00;4.67;;;;;;;;5059942;28;45224;-88
2024/03/27 04:10:13;;;;;;;;;5.67;4.67;;;;;;;;5059691;28;45207;-88
2024/03/27 04:12:38;;;;;;;;;6.33;6.33;;;;;;;;5058398;28;47521;-89
2024/03/27 04:15:05;;;;;;;;;6.33;6.33;;;;;;;;5058553;28;45264;-87
2024/03/27 04:17:30;;;;;;;;;6.33;5.33;;;;;;;;5059919;28;45149;-88
2024/03/27 04:19:58;;;;;;;;;8.00;6.00;;;;;;;;5059315;28;45201;-87
2024/03/27 04:22:23;;;;;;;;;6.67;6.00;;;;;;;;5059615;28;45301;-89
2024/03/27 04:24:49;;;;;;;;;7.00;6.00;;;;;;;;5059232;28;45294;-87
2024/03/27 04:27:14;;;;;;;;;3.67;3.00;;;;;;;;5059610;28;45254;-88
2024/03/27 04:29:39;;;;;;;;;4.00;4.00;;;;;;;;5059554;28;45445;-88
2024/03/27 04:32:05;;;;;;;;;5.33;4.33;;;;;;;;5059399;28;45291;-86
2024/03/27 04:34:30;;;;;;;;;6.00;6.00;;;;;;;;5059025;28;45839;-88
2024/03/27 04:36:55;;;;;;;;;6.67;5.67;;;;;;;;5059469;28;45315;-87
2024/03/27 04:39:22;;;;;;;;;9.00;6.00;;;;;;;;5059495;28;45497;-88
2024/03/27 04:41:47;;;;;;;;;5.33;5.33;;;;;;;;5059812;28;45951;-87
2024/03/27 04:44:12;;;;;;;;;8.33;7.67;;;;;;;;5058365;28;45331;-87
2024/03/27 04:46:38;;;;;;;;;4.00;4.00;;;;;;;;5059749;28;45365;-88
2024/03/27 04:49:03;;;;;;;;;8.67;8.67;;;;;;;;5059344;28;45300;-88
2024/03/27 04:51:28;;;;;;;;;6.00;5.00;;;;;;;;5058059;28;46358;-87
2024/03/27 04:53:53;;;;;;;;;7.67;7.67;;;;;;;;5059199;28;45272;-88
2024/03/27 04:56:18;;;;;;;;;7.00;5.00;;;;;;;;5059704;28;45211;-88
2024/03/27 04:58:43;;;;;;;;;7.00;7.00;;;;;;;;5098188;27;45378;-87
2024/03/27 05:01:09;;;;;;;;;6.00;6.00;;;;;;;;5102286;27;45252;-87
2024/03/27 05:03:34;;;;;;;;;6.00;6.00;;;;;;;;5103055;27;45345;-87
2024/03/27 05:05:59;;;;;;;;;6.33;6.33;;;;;;;;5103581;27;45216;-87
2024/03/27 05:08:24;;;;;;;;;7.00;6.00;;;;;;;;5093550;27;45473;-87
2024/03/27 05:10:49;;;;;;;;;7.67;6.00;;;;;;;;5082003;27;45373;-86
2024/03/27 05:13:15;;;;;;;;;5.33;5.33;;;;;;;;5080921;28;45240;-87
2024/03/27 05:15:40;;;;;;;;;6.00;6.00;;;;;;;;5080807;27;45235;-86
2024/03/27 05:18:07;;;;;;;;;7.67;6.33;;;;;;;;5082014;28;45478;-88
2024/03/27 05:20:32;;;;;;;;;7.00;7.00;;;;;;;;5080779;28;47280;-86
2024/03/27 05:22:58;;;;;;;;;6.67;6.67;;;;;;;;5082040;28;45385;-86
2024/03/27 05:25:23;;;;;;;;;5.67;5.67;;;;;;;;5082478;28;45329;-86
2024/03/27 05:27:48;;;;;;;;;5.00;4.33;;;;;;;;5080708;28;46967;-87
2024/03/27 05:30:13;;;;;;;;;5.33;5.33;;;;;;;;5082107;28;45989;-87
2024/03/27 05:32:38;;;;;;;;;6.67;6.67;;;;;;;;5080546;28;45387;-88
2024/03/27 05:35:04;;;;;;;;;8.67;6.33;;;;;;;;5082162;28;45307;-87
2024/03/27 05:37:29;;;;;;;;;7.00;6.00;;;;;;;;5082235;28;45364;-88
2024/03/27 05:39:54;;;;;;;;;7.00;6.33;;;;;;;;5082096;28;46441;-88
2024/03/27 05:42:19;;;;;;;;;7.33;6.67;;;;;;;;5080725;28;45711;-87
2024/03/27 05:44:44;;;;;;;;;5.33;5.33;;;;;;;;5080799;28;45336;-88
2024/03/27 05:47:12;;;;;;;;;5.67;5.67;;;;;;;;5082098;28;45372;-89
2024/03/27 05:49:37;;;;;;;;;7.00;5.00;;;;;;;;5081921;28;45274;-88
2024/03/27 05:52:02;;;;;;;;;5.67;5.67;;;;;;;;5081815;28;45530;-89
2024/03/27 05:54:27;;;;;;;;;6.00;6.00;;;;;;;;5080887;28;45262;-88
2024/03/27 05:56:53;;;;;;;;;8.00;7.00;;;;;;;;5082120;28;45338;-86
2024/03/27 05:59:18;;;;;;;;;8.00;8.00;;;;;;;;5080810;28;47229;-89
2024/03/27 06:01:43;;;;;;;;;8.33;6.00;;;;;;;;5082204;28;45207;-89
2024/03/27 06:04:08;;;;;;;;;7.00;6.67;;;;;;;;5080736;28;45480;-88
2024/03/27 06:06:34;;;;;;;;;9.00;7.33;;;;;;;;5080732;28;46137;-89
2024/03/27 06:08:59;;;;;;;;;7.00;6.33;;;;;;;;5082042;28;45434;-88
2024/03/27 06:11:24;;;;;;;;;8.33;7.00;;;;;;;;5080978;28;45297;-87
2024/03/27 06:13:49;;;;;;;;;7.00;6.00;;;;;;;;5082473;28;45425;-88
2024/03/27 06:16:15;;;;;;;;;8.00;7.00;;;;;;;;5081158;28;46132;-88
2024/03/27 06:18:44;;;;;;;;;7.33;7.00;;;;;;;;5080916;28;45320;-90
2024/03/27 06:21:09;;;;;;;;;5.33;4.00;;;;;;;;5080658;28;45363;-89
2024/03/27 06:23:34;;;;;;;;;6.00;5.00;;;;;;;;5081919;28;45286;-88
2024/03/27 06:26:00;;;;;;;;;6.00;4.67;;;;;;;;5074316;28;45358;-88
2024/03/27 06:28:25;;;;;;;;;7.67;6.00;;;;;;;;5077360;28;45337;-89
2024/03/27 06:31:00;;;;;;;;;7.00;6.00;;;;;;;;5071958;28;45306;-85
2024/03/27 06:33:25;;;;;;;;;7.67;6.00;;;;;;;;5079776;28;45386;-84
2024/03/27 06:35:53;;;;;;;;;7.00;6.67;;;;;;;;5081304;28;45364;-87
2024/03/27 06:38:19;;;;;;;;;7.33;6.00;;;;;;;;5080997;28;45257;-85
2024/03/27 06:40:45;;;;;;;;;9.67;6.67;;;;;;;;5081008;28;45274;-87
2024/03/27 06:43:10;;;;;;;;;5.67;5.67;;;;;;;;5079710;27;45273;-86
2024/03/27 06:45:36;;;;;;;;;9.00;8.00;;;;;;;;5080086;28;45607;-86
2024/03/27 06:48:01;;;;;;;;;6.00;6.00;;;;;;;;5080793;28;45317;-85
2024/03/27 06:50:26;;;;;;;;;7.33;6.33;;;;;;;;5080906;28;45304;-86
2024/03/27 06:52:51;;;;;;;;;6.67;6.67;;;;;;;;5081064;28;45485;-84
2024/03/27 06:55:16;;;;;;;;;5.33;5.33;;;;;;;;5079859;28;45932;-82
2024/03/27 06:57:42;;;;;;;;;5.00;5.00;;;;;;;;5091482;27;46027;-83
2024/03/27 07:00:09;;;;;;;;;5.33;5.33;;;;;;;;5101183;27;45328;-88
2024/03/27 07:02:35;;;;;;;;;8.33;6.67;;;;;;;;5100252;27;45389;-87
2024/03/27 07:05:00;;;;;;;;;4.33;4.33;;;;;;;;5100971;27;45246;-86
2024/03/27 07:07:25;;;;;;;;;5.00;4.00;;;;;;;;5101422;27;45404;-86
2024/03/27 07:09:50;;;;;;;;;5.33;5.33;;;;;;;;5101259;27;45423;-85
2024/03/27 07:12:15;;;;;;;;;4.67;4.67;;;;;;;;5103627;27;45226;-81
2024/03/27 07:14:40;;;;;;;;;7.00;5.33;;;;;;;;5100110;27;46135;-86
2024/03/27 07:17:06;;;;;;;;;4.67;4.00;;;;;;;;5100813;27;45414;-84
2024/03/27 07:19:31;;;;;;;;;4.00;4.00;;;;;;;;5100851;27;45325;-87
2024/03/27 07:21:56;;;;;;;;;0.00;0.00;;;;;;;;5100246;27;45467;-85
2024/03/27 07:24:22;;;;;;;;;5.00;5.00;;;;;;;;5100786;27;45483;-87
2024/03/27 07:26:55;;;;;;;;;6.00;6.00;;;;;;;;5099718;27;47148;-82
2024/03/27 07:29:20;;;;;;;;;3.00;3.00;;;;;;;;5087827;27;45412;-83
2024/03/27 07:31:45;;;;;;;;;3.00;3.00;;;;;;;;5080511;28;45314;-85
2024/03/27 07:34:10;;;;;;;;;4.00;2.33;;;;;;;;5079792;28;45234;-86
2024/03/27 07:36:36;;;;;;;;;4.00;4.00;;;;;;;;5081108;28;45761;-88
2024/03/27 07:39:01;;;;;;;;;4.00;4.00;;;;;;;;5080752;28;45277;-88
2024/03/27 07:41:26;;;;;;;;;5.00;5.00;;;;;;;;5079351;28;45326;-87
2024/03/27 07:43:51;;;;;;;;;3.00;3.00;;;;;;;;5080635;28;45334;-84
2024/03/27 07:46:17;;;;;;;;;3.00;3.00;;;;;;;;5084704;28;46187;-89
2024/03/27 07:48:42;;;;;;;;;3.00;3.00;;;;;;;;5084036;28;45334;-88
2024/03/27 07:51:07;;;;;;;;;4.33;3.33;;;;;;;;5080674;28;45420;-87
2024/03/27 07:53:32;;;;;;;;;4.00;3.00;;;;;;;;5074651;28;48397;-80
2024/03/27 07:55:59;;;;;;;;;4.00;3.33;;;;;;;;5080183;28;45477;-81
2024/03/27 07:58:24;;;;;;;;;3.00;3.00;;;;;;;;5082268;27;45238;-80
2024/03/27 08:00:49;;;;;;;;;5.33;4.33;;;;;;;;5067599;28;45726;-82
2024/03/27 08:03:15;;;;;;;;;5.33;5.33;;;;;;;;5060196;28;45316;-80
2024/03/27 08:05:40;;;;;;;;;4.33;3.33;;;;;;;;5055873;28;47181;-81
2024/03/27 08:08:05;;;;;;;;;4.00;4.00;;;;;;;;5060132;28;45574;-80
2024/03/27 08:10:31;;;;;;;;;4.00;4.00;;;;;;;;5066273;28;45232;-79
2024/03/27 08:12:56;;;;;;;;;4.00;4.00;;;;;;;;5060024;28;45323;-79
2024/03/27 08:15:21;;;;;;;;;4.00;4.00;;;;;;;;5062322;28;45251;-79
2024/03/27 08:17:46;;;;;;;;;3.00;3.00;;;;;;;;5060976;28;45400;-80
2024/03/27 08:20:11;;;;;;;;;4.33;3.33;;;;;;;;5065187;28;45337;-82
2024/03/27 08:22:37;;;;;;;;;2.67;2.67;;;;;;;;5076527;28;45354;-80
2024/03/27 08:25:02;;;;;;;;;4.00;4.00;;;;;;;;5066672;28;46108;-80
2024/03/27 08:27:27;;;;;;;;;3.00;3.00;;;;;;;;5057870;28;45557;-80
2024/03/27 08:29:53;;;;;;;;;4.00;2.67;;;;;;;;5073568;28;45631;-80
2024/03/27 08:32:19;;;;;;;;;5.00;4.33;;;;;;;;5074597;28;45445;-81
2024/03/27 08:34:44;;;;;;;;;5.00;3.00;;;;;;;;5060936;28;47411;-80
2024/03/27 08:37:09;;;;;;;;;3.00;3.00;;;;;;;;5062657;28;45356;-81
2024/03/27 08:39:34;;;;;;;;;3.00;3.00;;;;;;;;5061840;28;45305;-80
2024/03/27 08:41:59;;;;;;;;;3.33;3.33;;;;;;;;5061772;28;46968;-81
2024/03/27 08:44:25;;;;;;;;;4.00;4.00;;;;;;;;5063762;28;46349;-81
2024/03/27 08:46:50;;;;;;;;;4.00;4.00;;;;;;;;5065051;28;45375;-80
2024/03/27 08:49:15;;;;;;;;;3.33;3.00;;;;;;;;5063777;28;45347;-79
2024/03/27 08:51:41;;;;;;;;;4.00;3.00;;;;;;;;5066255;28;45394;-80
2024/03/27 08:54:06;;;;;;;;;4.00;4.00;;;;;;;;5063972;28;46336;-80
2024/03/27 08:56:31;;;;;;;;;3.67;3.67;;;;;;;;5069062;27;45304;-80
2024/03/27 08:58:56;;;;;;;;;3.00;3.00;;;;;;;;5106654;27;45319;-80
2024/03/27 09:01:21;;;;;;;;;3.00;3.00;;;;;;;;5101874;27;46358;-80
2024/03/27 09:03:47;;;;;;;;;2.33;2.33;;;;;;;;5101072;27;47217;-81
2024/03/27 09:06:12;;;;;;;;;2.00;2.00;;;;;;;;5103225;27;45238;-81
2024/03/27 09:08:38;;;;;;;;;3.00;2.00;;;;;;;;5103511;27;45741;-80
2024/03/27 09:11:03;;;;;;;;;2.00;2.00;;;;;;;;5102608;27;45629;-80
2024/03/27 09:13:28;;;;;;;;;2.67;2.67;;;;;;;;5102272;27;46199;-79
2024/03/27 09:15:55;;;;;;;;;2.00;1.00;;;;;;;;5101716;27;45879;-80
2024/03/27 09:18:20;;;;;;;;;2.67;2.67;;;;;;;;5083378;27;45488;-83
2024/03/27 09:20:50;;;;;;;;;3.00;3.00;;;;;;;;5072190;28;45326;-79
2024/03/27 09:23:15;;;;;;;;;1.00;1.00;;;;;;;;5085510;28;45380;-82
2024/03/27 09:25:41;;;;;;;;;3.00;2.00;;;;;;;;5083033;28;45326;-78
2024/03/27 09:28:06;;;;;;;;;2.00;2.00;;;;;;;;5084969;28;45571;-79
2024/03/27 09:30:31;;;;;;;;;3.00;3.00;;;;;;;;5084161;28;45442;-79
2024/03/27 09:32:56;;;;;;;;;3.00;3.00;;;;;;;;5088932;28;46957;-80
2024/03/27 09:35:22;;;;;;;;;1.00;1.00;;;;;;;;5073703;28;45906;-81
2024/03/27 09:37:47;;;;;;;;;3.00;3.00;;;;;;;;5081303;28;45429;-81
2024/03/27 09:40:12;;;;;;;;;2.00;2.00;;;;;;;;5071731;27;45362;-79
2024/03/27 09:42:37;;;;;;;;;3.00;3.00;;;;;;;;5077614;28;46239;-80
2024/03/27 09:45:03;;;;;;;;;2.00;2.00;;;;;;;;5075464;27;45374;-83
2024/03/27 09:47:30;;;;;;;;;3.00;3.00;;;;;;;;5077799;28;45377;-80
2024/03/27 09:49:55;;;;;;;;;3.00;3.00;;;;;;;;5090486;27;45422;-80
2024/03/27 09:52:21;;;;;;;;;1.00;1.00;;;;;;;;5104056;27;46422;-81
2024/03/27 09:54:46;;;;;;;;;1.00;1.00;;;;;;;;5101720;27;45259;-80
2024/03/27 09:57:12;;;;;;;;;3.00;3.00;;;;;;;;5098191;27;45337;-78
2024/03/27 09:59:37;;;;;;;;;3.00;3.00;;;;;;;;5082238;28;46079;-80
2024/03/27 10:02:06;;;;;;;;;4.00;4.00;;;;;;;;5073442;28;46224;-82
2024/03/27 10:04:31;;;;;;;;;2.00;2.00;;;;;;;;5065183;28;45701;-83
2024/03/27 10:06:57;;;;;;;;;1.00;1.00;;;;;;;;5082378;27;45667;-80
2024/03/27 10:09:22;;;;;;;;;1.00;1.00;;;;;;;;5081998;28;45610;-80
2024/03/27 10:11:49;;;;;;;;;1.00;1.00;;;;;;;;5099845;27;46340;-78
2024/03/27 10:14:14;;;;;;;;;1.00;1.00;;;;;;;;5083813;27;45262;-80
2024/03/27 10:16:39;;;;;;;;;1.00;0.67;;;;;;;;5075688;27;45366;-80
2024/03/27 10:19:05;;;;;;;;;1.00;1.00;;;;;;;;5060629;28;45271;-80
2024/03/27 10:21:30;;;;;;;;;1.33;1.33;;;;;;;;5076156;27;45421;-79
2024/03/27 10:23:55;;;;;;;;;1.00;1.00;;;;;;;;5080926;28;45141;-78
2024/03/27 10:26:21;;;;;;;;;1.00;1.00;;;;;;;;5079951;28;45359;-79
2024/03/27 10:28:46;;;;;;;;;1.00;1.00;;;;;;;;5082971;28;45169;-79
2024/03/27 10:31:11;;;;;;;;;1.00;1.00;;;;;;;;5082412;28;46133;-82
2024/03/27 10:33:36;;;;;;;;;1.33;1.33;;;;;;;;5083588;28;45284;-79
2024/03/27 10:36:02;;;;;;;;;1.67;1.67;;;;;;;;5082451;28;45567;-81
2024/03/27 10:38:27;;;;;;;;;1.00;1.00;;;;;;;;5082308;28;45495;-82
2024/03/27 10:40:55;;;;;;;;;1.33;1.33;;;;;;;;5081590;27;46349;-80
2024/03/27 10:43:30;;;;;;;;;1.67;1.00;;;;;;;;5085294;28;45430;-80
2024/03/27 10:45:55;;;;;;;;;2.00;2.00;;;;;;;;5081435;28;45267;-81
2024/03/27 10:48:21;;;;;;;;;1.00;1.00;;;;;;;;5079870;28;45399;-83
2024/03/27 10:50:47;;;;;;;;;0.67;0.67;;;;;;;;5079536;27;47236;-79
2024/03/27 10:53:13;;;;;;;;;2.00;2.00;;;;;;;;5084187;28;45341;-79
2024/03/27 10:55:39;;;;;;;;;1.67;1.67;;;;;;;;5077505;28;45303;-79
2024/03/27 10:58:05;;;;;;;;;3.00;2.00;;;;;;;;5078809;27;46469;-79
2024/03/27 11:00:31;;;;;;;;;2.33;2.33;;;;;;;;5086505;28;45348;-81
2024/03/27 11:02:57;;;;;;;;;1.33;1.33;;;;;;;;5080314;28;45750;-81
2024/03/27 11:05:22;;;;;;;;;1.67;1.67;;;;;;;;5079533;28;45363;-78
2024/03/27 11:07:48;;;;;;;;;1.00;1.00;;;;;;;;5079241;28;45784;-77
2024/03/27 11:10:22;;;;;;;;;1.33;1.00;;;;;;;;5080975;28;45391;-79
2024/03/27 11:12:49;;;;;;;;;1.00;1.00;;;;;;;;5082423;28;45305;-83
2024/03/27 11:15:14;;;;;;;;;1.33;1.33;;;;;;;;5080268;28;45376;-80
2024/03/27 11:17:39;;;;;;;;;1.33;1.33;;;;;;;;5081685;28;45320;-82
2024/03/27 11:20:10;;;;;;;;;1.33;1.33;;;;;;;;5081183;28;46200;-81
2024/03/27 11:22:35;;;;;;;;;35.00;32.00;;;;;;;;5079224;28;45659;-82
2024/03/27 11:25:08;;;;;;;;;1.00;0.33;;;;;;;;5081897;28;45276;-79
2024/03/27 11:27:33;;;;;;;;;1.33;1.33;;;;;;;;5068462;28;45925;-79
2024/03/27 11:29:59;;;;;;;;;1.00;1.00;;;;;;;;5062808;28;46168;-83
2024/03/27 11:32:31;;;;;;;;;3.00;3.00;;;;;;;;5059037;28;46131;-85
2024/03/27 11:34:57;;;;;;;;;2.00;0.33;;;;;;;;5062017;28;45354;-82
2024/03/27 11:37:22;;;;;;;;;0.00;0.00;;;;;;;;5063663;28;45361;-82
2024/03/27 11:39:47;;;;;;;;;1.00;1.00;;;;;;;;5060843;28;46239;-80
2024/03/27 11:42:12;;;;;;;;;2.00;1.00;;;;;;;;5061678;28;45635;-80
2024/03/27 11:44:37;;;;;;;;;1.00;1.00;;;;;;;;5060945;28;45505;-81
2024/03/27 11:47:03;;;;;;;;;1.00;1.00;;;;;;;;5061168;28;45962;-84
2024/03/27 11:49:28;;;;;;;;;0.00;0.00;;;;;;;;5061551;28;45395;-84
2024/03/27 11:51:54;;;;;;;;;2.00;1.00;;;;;;;;5060930;28;46011;-81
2024/03/27 11:54:19;;;;;;;;;0.00;0.00;;;;;;;;5070843;28;45332;-84
2024/03/27 11:56:44;;;;;;;;;0.00;0.00;;;;;;;;5073649;27;45862;-81
2024/03/27 11:59:09;;;;;;;;;0.00;0.00;;;;;;;;5069839;28;46072;-85
2024/03/27 12:01:35;;;;;;;;;0.33;0.33;;;;;;;;5080074;27;45333;-81
2024/03/27 12:04:03;;;;;;;;;7.33;5.67;;;;;;;;5077416;28;45520;-80
2024/03/27 12:06:28;;;;;;;;;1.00;1.00;;;;;;;;5076215;27;45371;-80
2024/03/27 12:08:54;;;;;;;;;2.00;2.00;;;;;;;;5071839;28;45304;-80
2024/03/27 12:11:19;;;;;;;;;3.00;1.67;;;;;;;;5083288;27;45207;-80
2024/03/27 12:13:45;;;;;;;;;0.33;0.33;;;;;;;;5076202;28;45342;-80
2024/03/27 12:16:10;;;;;;;;;0.00;0.00;;;;;;;;5068576;27;45330;-79
2024/03/27 12:18:36;;;;;;;;;0.25;0.25;;;;;;;;5064470;28;47277;-81
2024/03/27 12:21:01;;;;;;;;;0.67;0.00;;;;;;;;5077639;27;45357;-80
2024/03/27 12:23:27;;;;;;;;;1.00;1.00;;;;;;;;5081804;28;45329;-81
2024/03/27 12:25:54;;;;;;;;;0.00;0.00;;;;;;;;5077411;27;46147;-81
2024/03/27 12:28:20;;;;;;;;;0.33;0.33;;;;;;;;5082605;28;45280;-82
2024/03/27 12:30:45;;;;;;;;;0.00;0.00;;;;;;;;5083172;27;45319;-77
2024/03/27 12:33:10;;;;;;;;;0.00;0.00;;;;;;;;5082170;28;45429;-80
2024/03/27 12:35:36;;;;;;;;;0.00;0.00;;;;;;;;5080903;27;47340;-79
2024/03/27 12:38:01;;;;;;;;;0.00;0.00;;;;;;;;5083083;28;45372;-78
2024/03/27 12:40:26;;;;;;;;;0.00;0.00;;;;;;;;5081090;27;45425;-80
2024/03/27 12:42:51;;;;;;;;;0.00;0.00;;;;;;;;5083202;28;45268;-79
2024/03/27 12:45:16;;;;;;;;;0.00;0.00;;;;;;;;5082640;27;45420;-81
2024/03/27 12:47:42;;;;;;;;;1.00;0.33;;;;;;;;5082482;28;45322;-81
2024/03/27 12:50:07;;;;;;;;;0.00;0.00;;;;;;;;5084360;28;45335;-81
2024/03/27 12:52:34;;;;;;;;;0.67;0.00;;;;;;;;5083571;28;45274;-83
2024/03/27 12:54:59;;;;;;;;;0.00;0.00;;;;;;;;5084281;28;45496;-82
2024/03/27 12:57:24;;;;;;;;;0.00;0.00;;;;;;;;5083542;28;45561;-82
2024/03/27 12:59:49;;;;;;;;;0.00;0.00;;;;;;;;5088603;27;45402;-81
2024/03/27 13:02:14;;;;;;;;;0.00;0.00;;;;;;;;5101900;27;45328;-79
2024/03/27 13:04:40;;;;;;;;;0.00;0.00;;;;;;;;5099366;27;45484;-78
2024/03/27 13:07:05;;;;;;;;;1.67;0.00;;;;;;;;5081230;28;46255;-78
2024/03/27 13:09:30;;;;;;;;;1.00;1.00;;;;;;;;5080502;27;45330;-79
2024/03/27 13:11:55;;;;;;;;;3.00;2.67;;;;;;;;5081367;28;45448;-78
2024/03/27 13:14:21;;;;;;;;;1.00;1.00;;;;;;;;5080328;27;46529;-81
2024/03/27 13:16:49;;;;;;;;;0.00;0.00;;;;;;;;5081339;28;45401;-79
2024/03/27 13:19:14;;;;;;;;;3.00;1.67;;;;;;;;5080167;28;45311;-80
2024/03/27 13:21:40;;;;;;;;;0.00;0.00;;;;;;;;5079899;28;45340;-79
2024/03/27 13:24:05;;;;;;;;;1.00;1.00;;;;;;;;5077436;28;47045;-80
2024/03/27 13:26:30;;;;;;;;;0.00;0.00;;;;;;;;5080319;28;47135;-80
2024/03/27 13:28:55;;;;;;;;;1.33;0.00;;;;;;;;5098815;27;45238;-80
2024/03/27 13:31:20;;;;;;;;;0.00;0.00;;;;;;;;5091676;27;45578;-82
2024/03/27 13:33:46;;;;;;;;;0.00;0.00;;;;;;;;5080022;27;46364;-79
2024/03/27 13:36:11;;;;;;;;;0.00;0.00;;;;;;;;5081405;27;45394;-79
2024/03/27 13:38:36;;;;;;;;;0.00;0.00;;;;;;;;5081672;27;45422;-79
2024/03/27 13:41:02;;;;;;;;;0.00;0.00;;;;;;;;5081837;28;45298;-79
2024/03/27 13:43:28;;;;;;;;;0.00;0.00;;;;;;;;5081836;27;45295;-81
2024/03/27 13:45:53;;;;;;;;;0.00;0.00;;;;;;;;5081471;28;45446;-79
2024/03/27 13:48:19;;;;;;;;;0.00;0.00;;;;;;;;5079904;27;45449;-80
2024/03/27 13:50:44;;;;;;;;;0.67;0.67;;;;;;;;5081740;28;45512;-79
2024/03/27 13:53:09;;;;;;;;;0.00;0.00;;;;;;;;5081507;27;45368;-79
2024/03/27 13:55:34;;;;;;;;;1.33;1.00;;;;;;;;5078480;28;45409;-79
2024/03/27 13:58:00;;;;;;;;;0.00;0.00;;;;;;;;5071023;27;45241;-79
2024/03/27 14:00:25;;;;;;;;;1.00;1.00;;;;;;;;5066889;28;45485;-80
2024/03/27 14:02:50;;;;;;;;;0.00;0.00;;;;;;;;5072441;27;45325;-79
2024/03/27 14:05:15;;;;;;;;;1.00;1.00;;;;;;;;5061439;28;45355;-78
2024/03/27 14:07:40;;;;;;;;;1.00;1.00;;;;;;;;5060628;27;45303;-79
2024/03/27 14:10:06;;;;;;;;;0.00;0.00;;;;;;;;5070278;28;45468;-80
2024/03/27 14:12:31;;;;;;;;;0.00;0.00;;;;;;;;5075372;27;45442;-79
2024/03/27 14:14:56;;;;;;;;;1.75;0.25;;;;;;;;5069432;28;45451;-79
2024/03/27 14:17:22;;;;;;;;;1.00;0.00;;;;;;;;5065196;28;45453;-77
2024/03/27 14:19:47;;;;;;;;;0.00;0.00;;;;;;;;5060839;28;45320;-79
2024/03/27 14:22:12;;;;;;;;;2.00;0.00;;;;;;;;5059540;28;47306;-78
2024/03/27 14:24:37;;;;;;;;;0.00;0.00;;;;;;;;5059635;28;45860;-78
2024/03/27 14:27:03;;;;;;;;;1.00;1.00;;;;;;;;5060170;28;45440;-78
2024/03/27 14:29:28;;;;;;;;;0.00;0.00;;;;;;;;5060848;28;45398;-78
2024/03/27 14:31:53;;;;;;;;;0.00;0.00;;;;;;;;5060343;28;45615;-78